Time;durP1;ratioP1;P1;durP2;ratioP2;P2;SDS_P1;SDS_P2;PMS_P1;PMS_P2;Temp;Humidity;BMP_temperature;BMP_pressure;BME280_temperature;BME280_humidity;BME280_pressure;Samples;Min_cycle;Max_cycle;Signal;HPM_P1;HPM_P2
2022/04/18 00:01:14;;;;;;;1.75;1.23;;;;;;;;;;10532157;28;20097;-70
2022/04/18 00:06:15;;;;;;;3.55;1.52;;;;;;;;;;10513631;28;20024;-76
2022/04/18 00:11:15;;;;;;;2.83;1.33;;;;;;;;;;10513973;28;20026;-73
2022/04/18 00:16:15;;;;;;;2.95;1.55;;;;;;;;;;10513782;28;20031;-70
2022/04/18 00:21:15;;;;;;;1.52;1.38;;;;;;;;;;10513671;28;20024;-72
2022/04/18 00:26:16;;;;;;;2.15;2.03;;;;;;;;;;10513674;28;20024;-68
2022/04/18 00:31:16;;;;;;;2.03;1.90;;;;;;;;;;10513050;28;20588;-73
2022/04/18 00:36:16;;;;;;;2.10;2.00;;;;;;;;;;10513134;28;20028;-71
2022/04/18 00:41:17;;;;;;;5.40;5.00;;;;;;;;;;10531186;28;20088;-72
2022/04/18 00:46:18;;;;;;;2.35;2.25;;;;;;;;;;10530374;28;20051;-69
2022/04/18 00:51:23;;;;;;;3.65;1.60;;;;;;;;;;10512574;28;20483;-72
2022/04/18 00:56:24;;;;;;;2.63;2.00;;;;;;;;;;10511869;28;20542;-69
2022/04/18 01:01:24;;;;;;;3.25;2.47;;;;;;;;;;10511806;28;20028;-72
2022/04/18 01:06:24;;;;;;;2.28;2.08;;;;;;;;;;10511896;28;20016;-71
2022/04/18 01:11:26;;;;;;;2.90;2.70;;;;;;;;;;10530420;28;20038;-72
2022/04/18 01:16:26;;;;;;;2.00;1.70;;;;;;;;;;10509545;28;20020;-75
2022/04/18 01:21:26;;;;;;;2.47;1.60;;;;;;;;;;10511485;28;20032;-71
2022/04/18 01:31:45;;;;;;;2.08;1.88;;;;;;;;;;10513995;28;20024;-72
2022/04/18 01:36:46;;;;;;;1.52;1.15;;;;;;;;;;10528716;28;20024;-71
2022/04/18 01:41:46;;;;;;;1.63;1.42;;;;;;;;;;10528756;28;20133;-70
2022/04/18 01:46:47;;;;;;;3.05;2.28;;;;;;;;;;10510315;28;20048;-74
2022/04/18 01:51:47;;;;;;;2.37;2.17;;;;;;;;;;10510463;28;20024;-72
2022/04/18 01:56:47;;;;;;;1.67;1.30;;;;;;;;;;10510285;28;20270;-71
2022/04/18 02:01:49;;;;;;;1.67;1.58;;;;;;;;;;10509680;28;20024;-74
2022/04/18 02:06:49;;;;;;;1.27;1.23;;;;;;;;;;10510231;28;20024;-74
2022/04/18 02:11:49;;;;;;;3.07;1.73;;;;;;;;;;10509433;28;20419;-71
2022/04/18 02:16:50;;;;;;;1.83;1.60;;;;;;;;;;10509460;28;20016;-71
2022/04/18 02:21:50;;;;;;;2.28;1.42;;;;;;;;;;10492338;28;20023;-73
2022/04/18 02:26:50;;;;;;;2.28;1.92;;;;;;;;;;10527057;28;20119;-70
2022/04/18 02:37:13;;;;;;;2.25;1.63;;;;;;;;;;10527245;28;20032;-71
2022/04/18 02:42:13;;;;;;;1.50;1.40;;;;;;;;;;10508549;28;20124;-73
2022/04/18 02:47:13;;;;;;;1.40;1.30;;;;;;;;;;10508102;28;20039;-71
2022/04/18 02:52:14;;;;;;;2.07;1.83;;;;;;;;;;10507730;28;20024;-74
2022/04/18 02:57:14;;;;;;;1.48;1.30;;;;;;;;;;10508656;28;20032;-71
2022/04/18 03:02:14;;;;;;;2.07;1.93;;;;;;;;;;10508594;28;20097;-75
2022/04/18 03:07:15;;;;;;;2.43;1.27;;;;;;;;;;10508636;28;20467;-72
2022/04/18 03:12:15;;;;;;;4.00;1.27;;;;;;;;;;10507663;28;20634;-70
2022/04/18 03:17:16;;;;;;;3.25;2.00;;;;;;;;;;10525738;28;20024;-69
2022/04/18 03:22:16;;;;;;;7.32;2.08;;;;;;;;;;10525462;28;20035;-72
2022/04/18 03:27:16;;;;;;;2.53;2.00;;;;;;;;;;10507333;28;20028;-71
2022/04/18 03:32:17;;;;;;;1.50;1.40;;;;;;;;;;10490520;28;20032;-69
2022/04/18 03:42:36;;;;;;;2.67;2.08;;;;;;;;;;10551433;28;20138;-74
2022/04/18 03:47:36;;;;;;;2.90;1.90;;;;;;;;;;10514569;28;20492;-74
2022/04/18 03:52:37;;;;;;;2.35;2.15;;;;;;;;;;10498517;28;20063;-72
2022/04/18 03:57:37;;;;;;;4.40;1.53;;;;;;;;;;10514285;28;20028;-75
2022/04/18 04:02:37;;;;;;;3.38;2.13;;;;;;;;;;10513756;28;20361;-73
2022/04/18 04:07:38;;;;;;;2.20;2.00;;;;;;;;;;10513298;28;20032;-73
2022/04/18 04:12:38;;;;;;;8.10;1.50;;;;;;;;;;10513896;28;20495;-76
2022/04/18 04:17:39;;;;;;;2.30;2.00;;;;;;;;;;10512097;28;20630;-72
2022/04/18 04:22:42;;;;;;;3.08;2.55;;;;;;;;;;10513662;28;20028;-73
2022/04/18 04:27:43;;;;;;;5.10;2.85;;;;;;;;;;10530405;28;20020;-70
2022/04/18 04:32:43;;;;;;;2.43;2.23;;;;;;;;;;10512414;28;20482;-71
2022/04/18 04:37:43;;;;;;;12.38;4.38;;;;;;;;;;10511839;28;20097;-72
2022/04/18 04:42:44;;;;;;;3.17;2.88;;;;;;;;;;10558810;28;20514;-73
2022/04/18 04:47:44;;;;;;;3.28;2.97;;;;;;;;;;10511652;28;20586;-71
2022/04/18 04:52:44;;;;;;;1.92;1.50;;;;;;;;;;10528521;28;20585;-70
2022/04/18 04:57:46;;;;;;;2.50;1.90;;;;;;;;;;10529190;28;20016;-73
2022/04/18 05:02:47;;;;;;;3.33;1.98;;;;;;;;;;10513996;28;20523;-71
2022/04/18 05:07:48;;;;;;;2.22;1.95;;;;;;;;;;10552414;28;20030;-71
2022/04/18 05:12:54;;;;;;;3.10;2.80;;;;;;;;;;10554060;28;20027;-71
2022/04/18 05:17:54;;;;;;;5.93;3.25;;;;;;;;;;10537927;28;20032;-72
2022/04/18 05:22:55;;;;;;;2.70;1.70;;;;;;;;;;10510811;28;20020;-72
2022/04/18 05:27:55;;;;;;;5.07;2.70;;;;;;;;;;10510604;28;20023;-71
2022/04/18 05:32:56;;;;;;;6.77;4.00;;;;;;;;;;10528390;28;20020;-72
2022/04/18 05:37:56;;;;;;;4.50;2.42;;;;;;;;;;10527743;28;20545;-71
2022/04/18 05:42:57;;;;;;;4.93;2.15;;;;;;;;;;10509364;28;20110;-74
2022/04/18 05:47:57;;;;;;;3.17;2.78;;;;;;;;;;10509637;28;20036;-72
2022/04/18 05:52:57;;;;;;;8.43;3.17;;;;;;;;;;10492477;28;20023;-75
2022/04/18 05:57:57;;;;;;;10.77;4.40;;;;;;;;;;10509599;28;20031;-72
2022/04/18 06:02:59;;;;;;;4.15;3.10;;;;;;;;;;10508316;28;20100;-71
2022/04/18 06:07:59;;;;;;;9.68;2.75;;;;;;;;;;10509955;28;20027;-71
2022/04/18 06:12:59;;;;;;;7.30;2.53;;;;;;;;;;10527109;28;20035;-77
2022/04/18 06:18:00;;;;;;;4.20;3.00;;;;;;;;;;10508958;28;20105;-72
2022/04/18 06:23:00;;;;;;;4.80;2.63;;;;;;;;;;10526948;28;20020;-72
2022/04/18 06:28:00;;;;;;;3.05;2.60;;;;;;;;;;10527582;28;20055;-73
2022/04/18 06:33:00;;;;;;;6.20;3.67;;;;;;;;;;10526725;28;20032;-71
2022/04/18 06:38:01;;;;;;;6.28;2.90;;;;;;;;;;10508731;28;20563;-72
2022/04/18 06:43:01;;;;;;;3.20;2.47;;;;;;;;;;10507923;28;20032;-72
2022/04/18 06:48:01;;;;;;;4.95;2.83;;;;;;;;;;10508308;28;20036;-72
2022/04/18 06:53:01;;;;;;;3.28;2.53;;;;;;;;;;10525957;28;20032;-72
2022/04/18 06:58:02;;;;;;;2.92;2.65;;;;;;;;;;10527185;28;20032;-74
2022/04/18 07:03:02;;;;;;;4.43;2.63;;;;;;;;;;10508367;28;20125;-71
2022/04/18 07:08:02;;;;;;;3.05;2.72;;;;;;;;;;10508792;28;20472;-71
2022/04/18 07:13:03;;;;;;;4.40;2.90;;;;;;;;;;10511243;28;20157;-71
2022/04/18 07:18:03;;;;;;;3.67;2.40;;;;;;;;;;10517658;28;20954;-76
2022/04/18 07:23:03;;;;;;;3.42;2.53;;;;;;;;;;10517481;28;20570;-79
2022/04/18 07:28:04;;;;;;;5.43;2.45;;;;;;;;;;10516368;28;20047;-73
2022/04/18 07:33:04;;;;;;;6.13;3.40;;;;;;;;;;10515479;28;20019;-71
2022/04/18 07:43:23;;;;;;;4.88;3.03;;;;;;;;;;10533564;28;20548;-76
2022/04/18 07:48:24;;;;;;;7.63;3.42;;;;;;;;;;10514532;28;20024;-76
2022/04/18 07:53:24;;;;;;;5.97;2.50;;;;;;;;;;10514441;28;20024;-76
2022/04/18 07:58:24;;;;;;;3.33;2.45;;;;;;;;;;10531728;28;20016;-73
2022/04/18 08:03:25;;;;;;;2.95;1.98;;;;;;;;;;10514237;28;20133;-72
2022/04/18 08:08:25;;;;;;;6.43;3.03;;;;;;;;;;10513836;28;20027;-74
2022/04/18 08:13:25;;;;;;;3.58;2.60;;;;;;;;;;10531746;28;20028;-70
2022/04/18 08:18:26;;;;;;;4.20;2.67;;;;;;;;;;10512937;28;20024;-71
2022/04/18 08:23:26;;;;;;;2.67;2.47;;;;;;;;;;10513324;28;20407;-71
2022/04/18 08:28:26;;;;;;;3.53;2.30;;;;;;;;;;10513584;28;20517;-71
2022/04/18 08:33:29;;;;;;;2.78;2.00;;;;;;;;;;10513018;28;20469;-73
2022/04/18 08:38:29;;;;;;;5.35;3.00;;;;;;;;;;10512981;28;20031;-72
2022/04/18 08:43:29;;;;;;;3.45;2.55;;;;;;;;;;10512577;28;20043;-71
2022/04/18 08:53:50;;;;;;;2.90;1.85;;;;;;;;;;10530075;28;20016;-72
2022/04/18 08:58:51;;;;;;;9.15;3.55;;;;;;;;;;10512141;28;20119;-74
2022/04/18 09:03:51;;;;;;;7.30;2.17;;;;;;;;;;10511930;28;20498;-73
2022/04/18 09:08:55;;;;;;;3.90;1.50;;;;;;;;;;10511323;28;20116;-72
2022/04/18 09:14:05;;;;;;;3.10;1.65;;;;;;;;;;10529528;28;20266;-71
2022/04/18 09:19:09;;;;;;;4.75;1.92;;;;;;;;;;10511303;28;20027;-74
2022/04/18 09:24:22;;;;;;;2.78;1.48;;;;;;;;;;10510798;28;20107;-73
2022/04/18 09:29:22;;;;;;;15.57;1.98;;;;;;;;;;10510414;28;20028;-72
2022/04/18 09:34:23;;;;;;;1.20;0.82;;;;;;;;;;10510085;28;20028;-73
2022/04/18 09:39:24;;;;;;;2.33;1.55;;;;;;;;;;10510060;28;20031;-71
2022/04/18 09:44:26;;;;;;;3.67;1.55;;;;;;;;;;10509609;28;20545;-71
2022/04/18 09:49:35;;;;;;;1.52;1.27;;;;;;;;;;10509668;28;20040;-71
2022/04/18 09:54:35;;;;;;;2.72;1.67;;;;;;;;;;10509332;28;20020;-72
2022/04/18 09:59:37;;;;;;;2.70;1.77;;;;;;;;;;10492488;28;20024;-73
2022/04/18 10:04:37;;;;;;;5.32;1.77;;;;;;;;;;10509665;28;20066;-71
2022/04/18 10:09:41;;;;;;;2.40;1.42;;;;;;;;;;10493053;28;20142;-71
2022/04/18 10:14:42;;;;;;;4.18;1.80;;;;;;;;;;10508808;28;20035;-72
2022/04/18 10:19:49;;;;;;;1.27;1.17;;;;;;;;;;10508937;28;20035;-73
2022/04/18 10:25:01;;;;;;;1.25;0.98;;;;;;;;;;10526768;28;20062;-71
2022/04/18 10:30:02;;;;;;;3.05;1.10;;;;;;;;;;10508637;28;20054;-71
2022/04/18 10:35:03;;;;;;;6.20;2.35;;;;;;;;;;10508607;28;20434;-72
2022/04/18 10:40:04;;;;;;;1.95;1.45;;;;;;;;;;10508221;28;20027;-72
2022/04/18 10:45:17;;;;;;;4.38;0.90;;;;;;;;;;10525921;28;20473;-72
2022/04/18 10:50:18;;;;;;;2.10;1.10;;;;;;;;;;10515479;28;20853;-72
2022/04/18 10:55:20;;;;;;;3.70;1.13;;;;;;;;;;10516668;28;20527;-74
2022/04/18 11:00:20;;;;;;;3.58;2.05;;;;;;;;;;10534660;28;20015;-72
2022/04/18 11:05:33;;;;;;;3.53;1.60;;;;;;;;;;10534543;28;20103;-72
2022/04/18 11:10:37;;;;;;;4.70;2.40;;;;;;;;;;10534493;28;20423;-72
2022/04/18 11:15:38;;;;;;;8.02;1.88;;;;;;;;;;10515343;28;20111;-73
2022/04/18 11:20:38;;;;;;;3.47;1.25;;;;;;;;;;10515865;28;20483;-72
2022/04/18 11:25:48;;;;;;;3.38;1.90;;;;;;;;;;10533742;28;20028;-71
2022/04/18 11:30:48;;;;;;;2.92;1.85;;;;;;;;;;10515503;28;20024;-73
2022/04/18 11:35:49;;;;;;;1.98;1.48;;;;;;;;;;10515581;28;20023;-70
2022/04/18 11:40:49;;;;;;;2.42;1.90;;;;;;;;;;10514781;28;20023;-72
2022/04/18 11:45:49;;;;;;;2.57;1.87;;;;;;;;;;10514592;28;20041;-71
2022/04/18 11:50:50;;;;;;;2.53;1.80;;;;;;;;;;10514521;28;20085;-71
2022/04/18 11:55:50;;;;;;;1.83;1.73;;;;;;;;;;10514258;28;20031;-73
2022/04/18 12:11:35;;;;;;;2.92;1.85;;;;;;;;;;10532175;28;20095;-75
2022/04/18 12:16:36;;;;;;;2.67;2.17;;;;;;;;;;10514005;28;20020;-73
2022/04/18 12:21:36;;;;;;;4.13;2.30;;;;;;;;;;10531989;28;20022;-73
2022/04/18 12:26:38;;;;;;;4.80;2.13;;;;;;;;;;10512916;28;20042;-73
2022/04/18 12:31:39;;;;;;;2.40;2.20;;;;;;;;;;10513990;28;20163;-73
2022/04/18 12:36:39;;;;;;;3.80;2.05;;;;;;;;;;10513356;28;20463;-72
2022/04/18 12:41:40;;;;;;;3.05;2.00;;;;;;;;;;10512542;28;20123;-72
2022/04/18 12:46:41;;;;;;;2.67;1.60;;;;;;;;;;10530629;28;20525;-71
2022/04/18 12:51:42;;;;;;;2.55;1.80;;;;;;;;;;10512133;28;20309;-72
2022/04/18 12:56:46;;;;;;;6.22;1.40;;;;;;;;;;10511654;28;20020;-72
2022/04/18 13:01:46;;;;;;;5.20;1.92;;;;;;;;;;10521044;28;20023;-73
2022/04/18 13:06:57;;;;;;;4.03;2.23;;;;;;;;;;10554115;28;20027;-70
2022/04/18 13:12:07;;;;;;;3.00;2.03;;;;;;;;;;10552215;28;20407;-72
2022/04/18 13:17:08;;;;;;;2.15;1.95;;;;;;;;;;10516720;28;20040;-73
2022/04/18 13:22:09;;;;;;;4.40;1.80;;;;;;;;;;10524978;28;20012;-73
2022/04/18 13:27:25;;;;;;;4.57;2.72;;;;;;;;;;10531459;28;20020;-71
2022/04/18 13:32:25;;;;;;;3.78;2.65;;;;;;;;;;10535580;28;20023;-73
2022/04/18 13:37:26;;;;;;;3.45;2.15;;;;;;;;;;10529590;28;20510;-72
2022/04/18 13:42:27;;;;;;;3.08;2.33;;;;;;;;;;10549699;28;20030;-74
2022/04/18 13:47:27;;;;;;;4.38;3.03;;;;;;;;;;10532541;28;20036;-73
2022/04/18 13:52:27;;;;;;;4.60;2.63;;;;;;;;;;10545373;28;20465;-72
2022/04/18 13:57:28;;;;;;;4.43;2.60;;;;;;;;;;10535499;28;20292;-72
2022/04/18 14:02:28;;;;;;;4.50;2.33;;;;;;;;;;10529762;28;20407;-71
2022/04/18 14:07:28;;;;;;;5.18;2.92;;;;;;;;;;10547479;28;20020;-72
2022/04/18 14:12:29;;;;;;;2.83;1.83;;;;;;;;;;10525890;28;20024;-73
2022/04/18 14:22:48;;;;;;;3.92;2.58;;;;;;;;;;10546761;28;20024;-73
2022/04/18 14:27:48;;;;;;;2.70;2.10;;;;;;;;;;10526722;28;20031;-74
2022/04/18 14:32:49;;;;;;;2.40;1.90;;;;;;;;;;10526951;28;20127;-73
2022/04/18 14:37:49;;;;;;;11.77;3.25;;;;;;;;;;10535112;28;20035;-73
2022/04/18 14:42:49;;;;;;;5.32;2.80;;;;;;;;;;10531801;28;20036;-72
2022/04/18 14:47:51;;;;;;;5.07;3.10;;;;;;;;;;10529650;28;20050;-78
2022/04/18 14:52:51;;;;;;;4.68;2.53;;;;;;;;;;10530539;28;20359;-73
2022/04/18 14:57:51;;;;;;;5.50;2.72;;;;;;;;;;10526420;28;20023;-72
2022/04/18 15:02:52;;;;;;;5.03;3.40;;;;;;;;;;10527000;28;20034;-74
2022/04/18 15:07:53;;;;;;;14.52;4.47;;;;;;;;;;10527754;28;20111;-73
2022/04/18 15:12:54;;;;;;;9.43;3.17;;;;;;;;;;10528696;28;20509;-74
2022/04/18 15:17:54;;;;;;;4.60;3.67;;;;;;;;;;10546231;28;20038;-74
2022/04/18 15:22:55;;;;;;;8.77;3.85;;;;;;;;;;10528588;28;20464;-73
2022/04/18 15:27:55;;;;;;;6.13;3.90;;;;;;;;;;10525118;28;20626;-73
2022/04/18 15:32:55;;;;;;;5.17;3.67;;;;;;;;;;10531567;28;20032;-74
2022/04/18 15:37:56;;;;;;;10.00;3.83;;;;;;;;;;10532958;28;20028;-73
2022/04/18 15:42:56;;;;;;;6.35;4.72;;;;;;;;;;10533318;28;20043;-72
2022/04/18 15:47:56;;;;;;;5.63;3.40;;;;;;;;;;10507832;28;20155;-73
2022/04/18 15:52:57;;;;;;;5.57;4.03;;;;;;;;;;10506925;28;20214;-74
2022/04/18 15:57:57;;;;;;;5.43;2.90;;;;;;;;;;10508247;28;20435;-72
2022/04/18 16:02:57;;;;;;;4.38;3.17;;;;;;;;;;10508862;28;20036;-71
2022/04/18 16:07:58;;;;;;;2.20;2.00;;;;;;;;;;10494769;28;20028;-71
2022/04/18 16:12:58;;;;;;;4.77;2.93;;;;;;;;;;10511638;28;20032;-73
2022/04/18 16:17:58;;;;;;;4.72;2.65;;;;;;;;;;10507056;28;20032;-72
2022/04/18 16:22:58;;;;;;;3.42;2.88;;;;;;;;;;10511052;28;20430;-75
2022/04/18 16:27:59;;;;;;;7.00;2.88;;;;;;;;;;10508868;28;20028;-73
2022/04/18 16:32:59;;;;;;;9.73;3.55;;;;;;;;;;10513831;28;20138;-74
2022/04/18 16:37:59;;;;;;;4.32;2.90;;;;;;;;;;10513246;28;20046;-71
2022/04/18 16:48:19;;;;;;;12.60;3.47;;;;;;;;;;10511097;28;20064;-72
2022/04/18 16:53:19;;;;;;;3.13;2.17;;;;;;;;;;10490641;28;20118;-73
2022/04/18 16:58:19;;;;;;;5.27;2.80;;;;;;;;;;10510647;28;20501;-72
2022/04/18 17:03:20;;;;;;;4.00;2.77;;;;;;;;;;10507961;28;20020;-74
2022/04/18 17:08:20;;;;;;;2.93;2.27;;;;;;;;;;10508343;28;20851;-72
2022/04/18 17:13:20;;;;;;;5.78;3.17;;;;;;;;;;10506254;28;20107;-74
2022/04/18 17:18:20;;;;;;;3.40;3.08;;;;;;;;;;10512380;28;20388;-72
2022/04/18 17:23:21;;;;;;;5.03;3.20;;;;;;;;;;10507624;28;20076;-73
2022/04/18 17:28:21;;;;;;;7.25;3.47;;;;;;;;;;10503022;28;20035;-72
2022/04/18 17:33:22;;;;;;;7.17;4.97;;;;;;;;;;10509468;28;20023;-73
2022/04/18 17:38:22;;;;;;;5.70;3.83;;;;;;;;;;10506620;28;20024;-73
2022/04/18 17:43:24;;;;;;;5.55;3.28;;;;;;;;;;10507909;28;20491;-73
2022/04/18 17:48:24;;;;;;;6.63;5.07;;;;;;;;;;10528187;28;20078;-73
2022/04/18 17:58:43;;;;;;;7.57;5.20;;;;;;;;;;10542914;28;20016;-73
2022/04/18 18:03:44;;;;;;;9.98;5.35;;;;;;;;;;10524930;28;20008;-74
2022/04/18 18:08:44;;;;;;;8.67;6.27;;;;;;;;;;10551737;28;20020;-72
2022/04/18 18:13:44;;;;;;;11.73;7.50;;;;;;;;;;10551187;28;20458;-80
2022/04/18 18:18:45;;;;;;;9.63;8.17;;;;;;;;;;10550677;28;20375;-72
2022/04/18 18:23:45;;;;;;;12.23;6.53;;;;;;;;;;10551302;28;20613;-70
2022/04/18 18:28:45;;;;;;;12.33;7.63;;;;;;;;;;10551002;28;20024;-75
2022/04/18 18:33:45;;;;;;;12.52;7.28;;;;;;;;;;10569149;28;20028;-73
2022/04/18 18:38:46;;;;;;;5.28;4.78;;;;;;;;;;10511780;28;20016;-74
2022/04/18 18:43:46;;;;;;;9.55;6.82;;;;;;;;;;10508493;28;20080;-73
2022/04/18 18:48:46;;;;;;;8.13;4.88;;;;;;;;;;10508842;28;20028;-72
2022/04/18 18:53:47;;;;;;;7.73;5.93;;;;;;;;;;10492258;28;20039;-72
2022/04/18 18:58:47;;;;;;;13.35;6.55;;;;;;;;;;10509195;28;20027;-73
2022/04/18 19:03:48;;;;;;;11.18;7.32;;;;;;;;;;10531114;28;20020;-73
2022/04/18 19:08:48;;;;;;;9.73;6.10;;;;;;;;;;10553347;28;20106;-73
2022/04/18 19:13:50;;;;;;;8.73;5.95;;;;;;;;;;10558207;28;20114;-72
2022/04/18 19:29:28;;;;;;;7.90;5.70;;;;;;;;;;10533405;28;20024;-72
2022/04/18 19:34:28;;;;;;;10.57;4.85;;;;;;;;;;10515078;28;20024;-72
2022/04/18 19:39:30;;;;;;;8.07;5.43;;;;;;;;;;10516004;28;20028;-72
2022/04/18 19:44:30;;;;;;;13.43;8.15;;;;;;;;;;10514088;28;20426;-73
2022/04/18 19:49:30;;;;;;;10.57;8.05;;;;;;;;;;10515453;28;20024;-72
2022/04/18 19:54:31;;;;;;;12.32;8.02;;;;;;;;;;10542477;28;20080;-72
2022/04/18 19:59:31;;;;;;;12.35;6.55;;;;;;;;;;10526374;28;20035;-73
2022/04/18 20:04:31;;;;;;;7.07;5.03;;;;;;;;;;10533646;28;20013;-75
2022/04/18 20:09:31;;;;;;;7.83;4.57;;;;;;;;;;10534361;28;20028;-73
2022/04/18 20:14:32;;;;;;;5.88;4.45;;;;;;;;;;10555842;28;20033;-73
2022/04/18 20:19:32;;;;;;;6.18;4.00;;;;;;;;;;10530753;28;20035;-76
2022/04/18 20:24:32;;;;;;;4.47;3.87;;;;;;;;;;10535967;28;20447;-73
2022/04/18 20:29:33;;;;;;;5.43;4.20;;;;;;;;;;10533606;28;20042;-72
2022/04/18 20:34:33;;;;;;;4.80;3.80;;;;;;;;;;10530728;28;20483;-71
2022/04/18 20:39:33;;;;;;;5.20;3.40;;;;;;;;;;10528080;28;20028;-71
2022/04/18 20:44:34;;;;;;;4.22;3.10;;;;;;;;;;10537772;28;20063;-72
2022/04/18 20:49:34;;;;;;;5.03;3.22;;;;;;;;;;10548707;28;20069;-72
2022/04/18 21:00:11;;;;;;;3.88;3.58;;;;;;;;;;10501219;28;20564;-72
2022/04/18 21:05:11;;;;;;;3.33;3.10;;;;;;;;;;10534186;28;20028;-72
2022/04/18 21:10:12;;;;;;;3.35;3.15;;;;;;;;;;10532287;28;20035;-73
2022/04/18 21:15:12;;;;;;;2.15;2.00;;;;;;;;;;10529262;28;20084;-72
2022/04/18 21:20:13;;;;;;;5.60;2.20;;;;;;;;;;10514458;28;20024;-73
2022/04/18 21:25:13;;;;;;;3.85;3.53;;;;;;;;;;10512260;28;20031;-72
2022/04/18 21:30:14;;;;;;;3.88;3.58;;;;;;;;;;10508042;28;20113;-75
2022/04/18 21:35:14;;;;;;;4.50;3.75;;;;;;;;;;10509503;28;20521;-70
2022/04/18 21:40:15;;;;;;;4.82;3.38;;;;;;;;;;10527478;28;20141;-72
2022/04/18 21:45:16;;;;;;;5.75;4.30;;;;;;;;;;10508604;28;20119;-73
2022/04/18 21:50:16;;;;;;;7.13;3.88;;;;;;;;;;10508984;28;20092;-71
2022/04/18 21:55:17;;;;;;;5.03;3.37;;;;;;;;;;10508464;28;20019;-74
2022/04/18 22:00:31;;;;;;;5.18;3.75;;;;;;;;;;10511609;28;20023;-70
2022/04/18 22:05:31;;;;;;;4.95;4.53;;;;;;;;;;10507905;28;20024;-70
2022/04/18 22:10:32;;;;;;;4.77;4.00;;;;;;;;;;10507923;28;20024;-73
2022/04/18 22:15:32;;;;;;;4.70;3.87;;;;;;;;;;10508241;28;20488;-75
2022/04/18 22:25:51;;;;;;;4.18;3.78;;;;;;;;;;10526236;28;20008;-71
2022/04/18 22:30:52;;;;;;;5.97;4.83;;;;;;;;;;10507150;28;20020;-72
2022/04/18 22:35:52;;;;;;;6.90;5.85;;;;;;;;;;10525607;28;20024;-75
2022/04/18 22:40:52;;;;;;;5.25;4.70;;;;;;;;;;10509667;28;20016;-70
2022/04/18 22:45:53;;;;;;;7.68;4.32;;;;;;;;;;10519850;28;20128;-74
2022/04/18 22:50:53;;;;;;;4.40;3.45;;;;;;;;;;10521431;28;20124;-72
2022/04/18 22:55:53;;;;;;;7.00;3.67;;;;;;;;;;10520400;28;20107;-71
2022/04/18 23:00:54;;;;;;;4.40;3.75;;;;;;;;;;10503763;28;20066;-77
2022/04/18 23:05:54;;;;;;;6.97;4.33;;;;;;;;;;10520917;28;20020;-71
2022/04/18 23:10:54;;;;;;;5.27;4.77;;;;;;;;;;10540417;28;20517;-69
2022/04/18 23:15:54;;;;;;;5.53;4.25;;;;;;;;;;10522512;28;20292;-72
2022/04/18 23:20:58;;;;;;;5.43;4.93;;;;;;;;;;10557581;28;20018;-70
2022/04/18 23:25:59;;;;;;;6.38;5.50;;;;;;;;;;10563431;28;20023;-71
2022/04/18 23:30:59;;;;;;;5.18;4.53;;;;;;;;;;10563764;28;20433;-71
2022/04/18 23:36:00;;;;;;;5.32;3.22;;;;;;;;;;10563778;28;20141;-71
2022/04/18 23:46:19;;;;;;;2.55;2.33;;;;;;;;;;10582169;28;20463;-70
2022/04/18 23:51:20;;;;;;;4.18;3.78;;;;;;;;;;10563631;28;20031;-71
2022/04/18 23:56:20;;;;;;;2.92;2.60;;;;;;;;;;10557349;28;20019;-73
